sensor_id;sensor_type;location;lat;lon;timestamp;P1;durP1;ratioP1;P2;durP2;ratioP2
9489;SDS011;4783;42.734;23.288;2023-04-10T06:34:36;29.40;;;19.75;;
9489;SDS011;4783;42.734;23.288;2023-04-10T06:55:11;30.65;;;16.95;;
9489;SDS011;4783;42.734;23.288;2023-04-10T07:18:05;24.27;;;16.60;;
9489;SDS011;4783;42.734;23.288;2023-04-10T07:37:11;29.48;;;17.77;;
9489;SDS011;4783;42.734;23.288;2023-04-10T07:47:22;32.60;;;18.25;;
9489;SDS011;4783;42.734;23.288;2023-04-10T07:49:47;23.88;;;18.58;;
9489;SDS011;4783;42.734;23.288;2023-04-10T07:52:13;22.20;;;16.55;;
9489;SDS011;4783;42.734;23.288;2023-04-10T07:59:40;23.90;;;16.83;;
9489;SDS011;4783;42.734;23.288;2023-04-10T08:02:05;21.05;;;16.08;;
9489;SDS011;4783;42.734;23.288;2023-04-10T08:04:30;14.82;;;13.32;;
9489;SDS011;4783;42.734;23.288;2023-04-10T08:06:56;20.95;;;14.25;;
9489;SDS011;4783;42.734;23.288;2023-04-10T08:09:21;20.35;;;13.35;;
9489;SDS011;4783;42.734;23.288;2023-04-10T08:11:46;14.25;;;12.70;;
9489;SDS011;4783;42.734;23.288;2023-04-10T08:14:11;16.58;;;11.10;;
9489;SDS011;4783;42.734;23.288;2023-04-10T08:16:37;19.20;;;11.23;;
9489;SDS011;4783;42.734;23.288;2023-04-10T08:19:03;14.90;;;10.80;;
9489;SDS011;4783;42.734;23.288;2023-04-10T08:21:29;24.38;;;11.77;;
9489;SDS011;4783;42.734;23.288;2023-04-10T08:23:56;26.48;;;12.57;;
9489;SDS011;4783;42.734;23.288;2023-04-10T08:26:22;15.55;;;11.75;;
9489;SDS011;4783;42.734;23.288;2023-04-10T08:28:47;21.80;;;11.20;;
9489;SDS011;4783;42.734;23.288;2023-04-10T08:31:14;18.75;;;11.20;;
9489;SDS011;4783;42.734;23.288;2023-04-10T08:33:40;20.70;;;12.25;;
9489;SDS011;4783;42.734;23.288;2023-04-10T08:36:07;23.42;;;11.70;;
9489;SDS011;4783;42.734;23.288;2023-04-10T08:38:32;20.27;;;11.40;;
9489;SDS011;4783;42.734;23.288;2023-04-10T08:40:57;33.75;;;13.77;;
9489;SDS011;4783;42.734;23.288;2023-04-10T08:43:22;16.40;;;11.20;;
9489;SDS011;4783;42.734;23.288;2023-04-10T08:45:48;12.18;;;9.85;;
9489;SDS011;4783;42.734;23.288;2023-04-10T08:48:14;11.55;;;10.35;;
9489;SDS011;4783;42.734;23.288;2023-04-10T08:50:40;13.20;;;10.93;;
9489;SDS011;4783;42.734;23.288;2023-04-10T08:53:10;16.00;;;12.15;;
9489;SDS011;4783;42.734;23.288;2023-04-10T08:55:36;12.88;;;11.52;;
9489;SDS011;4783;42.734;23.288;2023-04-10T08:58:02;15.32;;;11.57;;
9489;SDS011;4783;42.734;23.288;2023-04-10T09:00:28;11.60;;;10.40;;
9489;SDS011;4783;42.734;23.288;2023-04-10T09:02:55;13.23;;;11.23;;
9489;SDS011;4783;42.734;23.288;2023-04-10T09:05:22;14.00;;;10.98;;
9489;SDS011;4783;42.734;23.288;2023-04-10T09:07:49;12.70;;;10.68;;
9489;SDS011;4783;42.734;23.288;2023-04-10T09:10:15;12.43;;;11.15;;
9489;SDS011;4783;42.734;23.288;2023-04-10T09:12:43;11.88;;;10.68;;
9489;SDS011;4783;42.734;23.288;2023-04-10T09:15:09;11.93;;;10.52;;
9489;SDS011;4783;42.734;23.288;2023-04-10T09:17:35;12.80;;;11.43;;
9489;SDS011;4783;42.734;23.288;2023-04-10T09:24:15;14.98;;;11.82;;
9489;SDS011;4783;42.734;23.288;2023-04-10T09:26:40;14.65;;;11.00;;
9489;SDS011;4783;42.734;23.288;2023-04-10T09:29:06;13.98;;;11.25;;
9489;SDS011;4783;42.734;23.288;2023-04-10T09:31:37;16.48;;;11.57;;
9489;SDS011;4783;42.734;23.288;2023-04-10T09:36:41;12.23;;;10.98;;
9489;SDS011;4783;42.734;23.288;2023-04-10T09:39:07;13.05;;;11.23;;
9489;SDS011;4783;42.734;23.288;2023-04-10T09:41:32;16.10;;;11.93;;
9489;SDS011;4783;42.734;23.288;2023-04-10T09:44:08;13.40;;;11.70;;
9489;SDS011;4783;42.734;23.288;2023-04-10T09:46:33;16.88;;;11.35;;
9489;SDS011;4783;42.734;23.288;2023-04-10T09:48:59;17.00;;;11.95;;
9489;SDS011;4783;42.734;23.288;2023-04-10T09:51:29;15.73;;;12.43;;
9489;SDS011;4783;42.734;23.288;2023-04-10T10:01:13;12.90;;;11.55;;
9489;SDS011;4783;42.734;23.288;2023-04-10T10:03:39;15.65;;;12.07;;
9489;SDS011;4783;42.734;23.288;2023-04-10T10:06:05;13.07;;;11.88;;
9489;SDS011;4783;42.734;23.288;2023-04-10T10:08:30;13.10;;;11.80;;
9489;SDS011;4783;42.734;23.288;2023-04-10T10:10:56;12.68;;;11.30;;
9489;SDS011;4783;42.734;23.288;2023-04-10T10:13:23;12.98;;;11.65;;
9489;SDS011;4783;42.734;23.288;2023-04-10T10:21:38;18.63;;;12.50;;
9489;SDS011;4783;42.734;23.288;2023-04-10T10:24:06;17.27;;;12.23;;
9489;SDS011;4783;42.734;23.288;2023-04-10T10:31:48;13.80;;;12.02;;
9489;SDS011;4783;42.734;23.288;2023-04-10T10:42:25;12.40;;;10.30;;
9489;SDS011;4783;42.734;23.288;2023-04-10T10:47:29;14.25;;;10.25;;
9489;SDS011;4783;42.734;23.288;2023-04-10T10:49:58;14.50;;;10.63;;
9489;SDS011;4783;42.734;23.288;2023-04-10T10:58:01;11.10;;;10.00;;
9489;SDS011;4783;42.734;23.288;2023-04-10T11:01:12;10.68;;;9.55;;
9489;SDS011;4783;42.734;23.288;2023-04-10T11:08:16;11.70;;;9.02;;
9489;SDS011;4783;42.734;23.288;2023-04-10T11:19:07;11.10;;;9.90;;
9489;SDS011;4783;42.734;23.288;2023-04-10T11:21:33;17.55;;;10.15;;
9489;SDS011;4783;42.734;23.288;2023-04-10T11:28:59;9.85;;;8.73;;
9489;SDS011;4783;42.734;23.288;2023-04-10T11:31:25;15.02;;;9.55;;
9489;SDS011;4783;42.734;23.288;2023-04-10T11:36:23;10.63;;;9.57;;
9489;SDS011;4783;42.734;23.288;2023-04-10T11:41:36;10.63;;;9.52;;
9489;SDS011;4783;42.734;23.288;2023-04-10T11:44:04;10.13;;;9.23;;
9489;SDS011;4783;42.734;23.288;2023-04-10T11:46:30;10.82;;;9.65;;
9489;SDS011;4783;42.734;23.288;2023-04-10T11:48:59;11.38;;;10.13;;
9489;SDS011;4783;42.734;23.288;2023-04-10T11:51:25;11.05;;;9.98;;
9489;SDS011;4783;42.734;23.288;2023-04-10T11:54:54;11.57;;;9.98;;
9489;SDS011;4783;42.734;23.288;2023-04-10T11:59:26;10.38;;;9.32;;
9489;SDS011;4783;42.734;23.288;2023-04-10T12:01:52;10.32;;;9.32;;
9489;SDS011;4783;42.734;23.288;2023-04-10T12:04:21;12.55;;;10.68;;
9489;SDS011;4783;42.734;23.288;2023-04-10T12:36:21;17.05;;;13.30;;
9489;SDS011;4783;42.734;23.288;2023-04-10T13:13:31;14.65;;;12.13;;
9489;SDS011;4783;42.734;23.288;2023-04-10T13:15:57;14.07;;;12.30;;
9489;SDS011;4783;42.734;23.288;2023-04-10T13:18:22;13.00;;;11.23;;
9489;SDS011;4783;42.734;23.288;2023-04-10T13:20:47;14.60;;;13.10;;
9489;SDS011;4783;42.734;23.288;2023-04-10T13:23:12;14.80;;;13.07;;
9489;SDS011;4783;42.734;23.288;2023-04-10T13:25:38;17.55;;;15.20;;
9489;SDS011;4783;42.734;23.288;2023-04-10T13:28:04;15.57;;;12.75;;
9489;SDS011;4783;42.734;23.288;2023-04-10T13:30:34;15.73;;;11.90;;
9489;SDS011;4783;42.734;23.288;2023-04-10T13:32:59;12.30;;;11.10;;
9489;SDS011;4783;42.734;23.288;2023-04-10T13:35:24;10.90;;;9.80;;
9489;SDS011;4783;42.734;23.288;2023-04-10T13:37:49;11.82;;;10.63;;
9489;SDS011;4783;42.734;23.288;2023-04-10T13:40:17;10.10;;;9.20;;
9489;SDS011;4783;42.734;23.288;2023-04-10T13:42:42;10.75;;;9.65;;
9489;SDS011;4783;42.734;23.288;2023-04-10T13:45:07;8.98;;;8.07;;
9489;SDS011;4783;42.734;23.288;2023-04-10T13:47:33;11.20;;;10.00;;
9489;SDS011;4783;42.734;23.288;2023-04-10T13:49:58;9.10;;;8.25;;
9489;SDS011;4783;42.734;23.288;2023-04-10T13:52:23;11.88;;;10.68;;
9489;SDS011;4783;42.734;23.288;2023-04-10T13:54:48;9.80;;;8.88;;
9489;SDS011;4783;42.734;23.288;2023-04-10T13:57:13;10.02;;;9.00;;
9489;SDS011;4783;42.734;23.288;2023-04-10T13:59:39;7.85;;;7.15;;
9489;SDS011;4783;42.734;23.288;2023-04-10T14:02:04;7.28;;;6.57;;
9489;SDS011;4783;42.734;23.288;2023-04-10T14:04:29;7.90;;;7.10;;
9489;SDS011;4783;42.734;23.288;2023-04-10T14:06:55;7.80;;;7.10;;
9489;SDS011;4783;42.734;23.288;2023-04-10T14:09:23;7.90;;;7.10;;
9489;SDS011;4783;42.734;23.288;2023-04-10T14:11:49;7.90;;;7.20;;
9489;SDS011;4783;42.734;23.288;2023-04-10T14:14:14;5.95;;;5.35;;
9489;SDS011;4783;42.734;23.288;2023-04-10T14:16:40;5.22;;;4.70;;
9489;SDS011;4783;42.734;23.288;2023-04-10T14:19:05;5.00;;;4.50;;
9489;SDS011;4783;42.734;23.288;2023-04-10T14:21:30;5.22;;;4.78;;
9489;SDS011;4783;42.734;23.288;2023-04-10T14:23:56;7.22;;;5.93;;
9489;SDS011;4783;42.734;23.288;2023-04-10T14:26:21;6.35;;;5.53;;
9489;SDS011;4783;42.734;23.288;2023-04-10T14:28:47;7.93;;;7.13;;
9489;SDS011;4783;42.734;23.288;2023-04-10T14:31:12;10.07;;;8.85;;
9489;SDS011;4783;42.734;23.288;2023-04-10T14:33:37;7.72;;;7.03;;
9489;SDS011;4783;42.734;23.288;2023-04-10T15:31:37;13.38;;;11.10;;
9489;SDS011;4783;42.734;23.288;2023-04-10T16:08:11;11.43;;;10.23;;
9489;SDS011;4783;42.734;23.288;2023-04-10T16:10:36;11.50;;;10.32;;
